sensor_id;sensor_type;location;lat;lon;timestamp;P1;durP1;ratioP1;P2;durP2;ratioP2
48765;SDS011;34570;51.836;5.002;2022-11-09T00:01:32;3.30;;;1.10;;
48765;SDS011;34570;51.836;5.002;2022-11-09T00:03:59;8.93;;;1.27;;
48765;SDS011;34570;51.836;5.002;2022-11-09T00:06:25;8.85;;;1.48;;
48765;SDS011;34570;51.836;5.002;2022-11-09T00:08:51;9.80;;;1.48;;
48765;SDS011;34570;51.836;5.002;2022-11-09T00:11:17;9.35;;;1.45;;
48765;SDS011;34570;51.836;5.002;2022-11-09T00:13:43;13.40;;;1.58;;
48765;SDS011;34570;51.836;5.002;2022-11-09T00:16:09;5.65;;;1.00;;
48765;SDS011;34570;51.836;5.002;2022-11-09T00:18:35;13.20;;;1.55;;
48765;SDS011;34570;51.836;5.002;2022-11-09T00:21:08;12.63;;;1.63;;
48765;SDS011;34570;51.836;5.002;2022-11-09T00:23:34;7.57;;;1.25;;
48765;SDS011;34570;51.836;5.002;2022-11-09T00:26:04;10.88;;;1.30;;
48765;SDS011;34570;51.836;5.002;2022-11-09T00:28:29;10.75;;;1.50;;
48765;SDS011;34570;51.836;5.002;2022-11-09T00:31:02;10.93;;;1.17;;
48765;SDS011;34570;51.836;5.002;2022-11-09T00:33:28;6.35;;;1.00;;
48765;SDS011;34570;51.836;5.002;2022-11-09T00:35:53;9.43;;;1.40;;
48765;SDS011;34570;51.836;5.002;2022-11-09T00:38:19;5.93;;;0.70;;
48765;SDS011;34570;51.836;5.002;2022-11-09T00:40:45;4.72;;;1.10;;
48765;SDS011;34570;51.836;5.002;2022-11-09T00:43:10;6.65;;;1.15;;
48765;SDS011;34570;51.836;5.002;2022-11-09T00:45:35;7.60;;;1.13;;
48765;SDS011;34570;51.836;5.002;2022-11-09T00:48:01;11.85;;;1.77;;
48765;SDS011;34570;51.836;5.002;2022-11-09T00:50:28;10.10;;;1.40;;
48765;SDS011;34570;51.836;5.002;2022-11-09T00:52:53;10.85;;;1.50;;
48765;SDS011;34570;51.836;5.002;2022-11-09T00:55:19;9.65;;;1.60;;
48765;SDS011;34570;51.836;5.002;2022-11-09T00:57:49;8.23;;;1.25;;
48765;SDS011;34570;51.836;5.002;2022-11-09T01:00:21;10.05;;;1.30;;
48765;SDS011;34570;51.836;5.002;2022-11-09T01:02:50;12.90;;;1.60;;
48765;SDS011;34570;51.836;5.002;2022-11-09T01:05:17;9.25;;;1.35;;
48765;SDS011;34570;51.836;5.002;2022-11-09T01:07:42;6.30;;;1.15;;
48765;SDS011;34570;51.836;5.002;2022-11-09T01:10:09;13.43;;;1.55;;
48765;SDS011;34570;51.836;5.002;2022-11-09T01:12:35;9.68;;;1.40;;
48765;SDS011;34570;51.836;5.002;2022-11-09T01:15:00;10.88;;;1.52;;
48765;SDS011;34570;51.836;5.002;2022-11-09T01:17:26;8.05;;;0.90;;
48765;SDS011;34570;51.836;5.002;2022-11-09T01:19:53;10.30;;;1.45;;
48765;SDS011;34570;51.836;5.002;2022-11-09T01:22:21;7.88;;;1.30;;
48765;SDS011;34570;51.836;5.002;2022-11-09T01:24:46;8.48;;;1.35;;
48765;SDS011;34570;51.836;5.002;2022-11-09T01:27:12;17.30;;;1.70;;
48765;SDS011;34570;51.836;5.002;2022-11-09T01:29:38;9.05;;;1.58;;
48765;SDS011;34570;51.836;5.002;2022-11-09T01:32:03;11.23;;;1.23;;
48765;SDS011;34570;51.836;5.002;2022-11-09T01:34:30;12.15;;;1.35;;
48765;SDS011;34570;51.836;5.002;2022-11-09T01:36:55;8.38;;;1.40;;
48765;SDS011;34570;51.836;5.002;2022-11-09T01:39:21;12.63;;;1.42;;
48765;SDS011;34570;51.836;5.002;2022-11-09T01:41:46;9.80;;;1.33;;
48765;SDS011;34570;51.836;5.002;2022-11-09T01:44:14;8.35;;;1.17;;
48765;SDS011;34570;51.836;5.002;2022-11-09T01:49:57;7.75;;;1.55;;
48765;SDS011;34570;51.836;5.002;2022-11-09T01:51:58;8.03;;;1.70;;
48765;SDS011;34570;51.836;5.002;2022-11-09T01:54:26;9.27;;;1.45;;
48765;SDS011;34570;51.836;5.002;2022-11-09T01:56:56;11.32;;;1.83;;
48765;SDS011;34570;51.836;5.002;2022-11-09T01:59:28;5.88;;;1.63;;
48765;SDS011;34570;51.836;5.002;2022-11-09T02:01:54;6.20;;;1.50;;
48765;SDS011;34570;51.836;5.002;2022-11-09T02:06:46;6.40;;;1.88;;
48765;SDS011;34570;51.836;5.002;2022-11-09T02:11:57;13.02;;;1.80;;
48765;SDS011;34570;51.836;5.002;2022-11-09T02:14:24;9.20;;;1.70;;
48765;SDS011;34570;51.836;5.002;2022-11-09T02:16:50;6.32;;;1.42;;
48765;SDS011;34570;51.836;5.002;2022-11-09T02:19:16;10.35;;;1.90;;
48765;SDS011;34570;51.836;5.002;2022-11-09T02:21:41;5.30;;;1.27;;
48765;SDS011;34570;51.836;5.002;2022-11-09T02:24:07;9.10;;;1.60;;
48765;SDS011;34570;51.836;5.002;2022-11-09T02:29:02;7.00;;;1.50;;
48765;SDS011;34570;51.836;5.002;2022-11-09T02:31:31;5.68;;;1.33;;
48765;SDS011;34570;51.836;5.002;2022-11-09T02:33:58;14.48;;;1.80;;
48765;SDS011;34570;51.836;5.002;2022-11-09T02:36:26;6.72;;;1.52;;
48765;SDS011;34570;51.836;5.002;2022-11-09T02:38:53;9.98;;;1.38;;
48765;SDS011;34570;51.836;5.002;2022-11-09T02:41:20;12.88;;;1.30;;
48765;SDS011;34570;51.836;5.002;2022-11-09T02:43:46;5.70;;;1.33;;
48765;SDS011;34570;51.836;5.002;2022-11-09T02:46:12;10.38;;;1.70;;
48765;SDS011;34570;51.836;5.002;2022-11-09T02:48:39;6.03;;;1.33;;
48765;SDS011;34570;51.836;5.002;2022-11-09T02:51:04;10.10;;;1.48;;
48765;SDS011;34570;51.836;5.002;2022-11-09T02:53:30;3.70;;;1.17;;
48765;SDS011;34570;51.836;5.002;2022-11-09T02:55:57;6.15;;;1.02;;
48765;SDS011;34570;51.836;5.002;2022-11-09T02:58:22;10.68;;;2.05;;
48765;SDS011;34570;51.836;5.002;2022-11-09T03:00:48;6.13;;;1.33;;
48765;SDS011;34570;51.836;5.002;2022-11-09T03:03:14;7.35;;;1.15;;
48765;SDS011;34570;51.836;5.002;2022-11-09T03:05:41;11.68;;;1.60;;
48765;SDS011;34570;51.836;5.002;2022-11-09T03:08:09;4.90;;;1.40;;
48765;SDS011;34570;51.836;5.002;2022-11-09T03:10:34;7.25;;;1.23;;
48765;SDS011;34570;51.836;5.002;2022-11-09T03:13:00;5.35;;;1.02;;
48765;SDS011;34570;51.836;5.002;2022-11-09T03:15:26;12.20;;;1.65;;
48765;SDS011;34570;51.836;5.002;2022-11-09T03:17:51;11.18;;;1.52;;
48765;SDS011;34570;51.836;5.002;2022-11-09T03:20:18;6.82;;;1.30;;
48765;SDS011;34570;51.836;5.002;2022-11-09T03:22:44;4.47;;;1.05;;
48765;SDS011;34570;51.836;5.002;2022-11-09T03:25:09;8.50;;;1.40;;
48765;SDS011;34570;51.836;5.002;2022-11-09T03:27:35;3.97;;;0.95;;
48765;SDS011;34570;51.836;5.002;2022-11-09T03:30:01;9.70;;;1.63;;
48765;SDS011;34570;51.836;5.002;2022-11-09T03:32:29;7.75;;;1.30;;
48765;SDS011;34570;51.836;5.002;2022-11-09T03:34:54;7.63;;;1.20;;
48765;SDS011;34570;51.836;5.002;2022-11-09T03:37:21;8.88;;;1.15;;
48765;SDS011;34570;51.836;5.002;2022-11-09T03:39:46;5.18;;;1.05;;
48765;SDS011;34570;51.836;5.002;2022-11-09T03:42:12;8.45;;;1.30;;
48765;SDS011;34570;51.836;5.002;2022-11-09T03:44:38;7.68;;;1.25;;
48765;SDS011;34570;51.836;5.002;2022-11-09T03:47:04;6.93;;;1.42;;
48765;SDS011;34570;51.836;5.002;2022-11-09T03:49:29;7.70;;;1.10;;
48765;SDS011;34570;51.836;5.002;2022-11-09T03:51:55;7.00;;;1.13;;
48765;SDS011;34570;51.836;5.002;2022-11-09T03:54:20;16.58;;;1.70;;
48765;SDS011;34570;51.836;5.002;2022-11-09T03:56:46;8.93;;;1.58;;
48765;SDS011;34570;51.836;5.002;2022-11-09T03:59:11;5.10;;;1.00;;
48765;SDS011;34570;51.836;5.002;2022-11-09T04:01:36;7.22;;;1.20;;
48765;SDS011;34570;51.836;5.002;2022-11-09T04:04:02;6.55;;;0.90;;
48765;SDS011;34570;51.836;5.002;2022-11-09T04:06:27;6.95;;;1.52;;
48765;SDS011;34570;51.836;5.002;2022-11-09T04:08:53;7.45;;;1.13;;
48765;SDS011;34570;51.836;5.002;2022-11-09T04:11:19;6.13;;;1.10;;
48765;SDS011;34570;51.836;5.002;2022-11-09T04:13:44;10.20;;;1.42;;
48765;SDS011;34570;51.836;5.002;2022-11-09T04:16:10;11.77;;;1.02;;
48765;SDS011;34570;51.836;5.002;2022-11-09T04:18:36;11.60;;;1.05;;
48765;SDS011;34570;51.836;5.002;2022-11-09T04:21:02;8.15;;;1.33;;
48765;SDS011;34570;51.836;5.002;2022-11-09T04:23:27;7.93;;;1.23;;
48765;SDS011;34570;51.836;5.002;2022-11-09T04:25:53;7.88;;;1.27;;
48765;SDS011;34570;51.836;5.002;2022-11-09T04:28:18;10.63;;;1.30;;
48765;SDS011;34570;51.836;5.002;2022-11-09T04:30:44;9.80;;;1.38;;
48765;SDS011;34570;51.836;5.002;2022-11-09T04:33:09;11.07;;;1.20;;
48765;SDS011;34570;51.836;5.002;2022-11-09T04:35:35;7.22;;;1.35;;
48765;SDS011;34570;51.836;5.002;2022-11-09T04:38:05;8.23;;;1.20;;
48765;SDS011;34570;51.836;5.002;2022-11-09T04:40:31;6.47;;;1.02;;
48765;SDS011;34570;51.836;5.002;2022-11-09T04:43:01;9.82;;;1.20;;
48765;SDS011;34570;51.836;5.002;2022-11-09T04:45:27;6.53;;;0.98;;
48765;SDS011;34570;51.836;5.002;2022-11-09T04:47:56;13.70;;;1.52;;
48765;SDS011;34570;51.836;5.002;2022-11-09T04:50:22;8.15;;;1.13;;
48765;SDS011;34570;51.836;5.002;2022-11-09T04:52:50;6.90;;;0.88;;
48765;SDS011;34570;51.836;5.002;2022-11-09T04:55:15;9.45;;;1.08;;
48765;SDS011;34570;51.836;5.002;2022-11-09T04:57:41;13.20;;;2.03;;
48765;SDS011;34570;51.836;5.002;2022-11-09T05:00:06;10.50;;;1.27;;
48765;SDS011;34570;51.836;5.002;2022-11-09T05:02:32;16.83;;;1.52;;
48765;SDS011;34570;51.836;5.002;2022-11-09T05:04:58;10.73;;;1.25;;
48765;SDS011;34570;51.836;5.002;2022-11-09T05:07:23;9.98;;;1.17;;
48765;SDS011;34570;51.836;5.002;2022-11-09T05:09:48;5.72;;;1.35;;
48765;SDS011;34570;51.836;5.002;2022-11-09T05:12:14;9.20;;;1.63;;
48765;SDS011;34570;51.836;5.002;2022-11-09T05:14:39;10.65;;;1.63;;
48765;SDS011;34570;51.836;5.002;2022-11-09T05:17:05;10.60;;;1.20;;
48765;SDS011;34570;51.836;5.002;2022-11-09T05:19:33;10.02;;;1.83;;
48765;SDS011;34570;51.836;5.002;2022-11-09T05:21:58;14.05;;;1.55;;
48765;SDS011;34570;51.836;5.002;2022-11-09T05:24:43;6.57;;;1.35;;
48765;SDS011;34570;51.836;5.002;2022-11-09T05:27:09;9.35;;;1.48;;
48765;SDS011;34570;51.836;5.002;2022-11-09T05:29:34;11.23;;;1.40;;
48765;SDS011;34570;51.836;5.002;2022-11-09T05:32:00;9.23;;;1.65;;
48765;SDS011;34570;51.836;5.002;2022-11-09T05:34:25;12.25;;;1.27;;
48765;SDS011;34570;51.836;5.002;2022-11-09T05:36:51;7.95;;;1.40;;
48765;SDS011;34570;51.836;5.002;2022-11-09T05:39:16;7.78;;;1.40;;
48765;SDS011;34570;51.836;5.002;2022-11-09T05:41:42;7.70;;;1.15;;
48765;SDS011;34570;51.836;5.002;2022-11-09T05:44:07;8.02;;;1.25;;
48765;SDS011;34570;51.836;5.002;2022-11-09T05:46:34;11.82;;;1.73;;
48765;SDS011;34570;51.836;5.002;2022-11-09T05:48:59;20.83;;;1.80;;
48765;SDS011;34570;51.836;5.002;2022-11-09T05:51:25;9.27;;;1.35;;
48765;SDS011;34570;51.836;5.002;2022-11-09T05:53:50;7.70;;;1.35;;
48765;SDS011;34570;51.836;5.002;2022-11-09T05:56:16;16.13;;;2.00;;
48765;SDS011;34570;51.836;5.002;2022-11-09T05:58:41;11.63;;;1.80;;
48765;SDS011;34570;51.836;5.002;2022-11-09T06:01:11;7.60;;;1.52;;
48765;SDS011;34570;51.836;5.002;2022-11-09T06:03:37;12.40;;;1.77;;
48765;SDS011;34570;51.836;5.002;2022-11-09T06:06:04;8.35;;;1.90;;
48765;SDS011;34570;51.836;5.002;2022-11-09T06:08:29;11.52;;;1.83;;
48765;SDS011;34570;51.836;5.002;2022-11-09T06:10:59;12.88;;;2.13;;
48765;SDS011;34570;51.836;5.002;2022-11-09T06:13:24;11.05;;;1.83;;
48765;SDS011;34570;51.836;5.002;2022-11-09T06:15:57;9.73;;;1.73;;
48765;SDS011;34570;51.836;5.002;2022-11-09T06:18:23;8.38;;;1.52;;
48765;SDS011;34570;51.836;5.002;2022-11-09T06:20:52;13.10;;;2.47;;
48765;SDS011;34570;51.836;5.002;2022-11-09T06:23:18;7.18;;;1.42;;
48765;SDS011;34570;51.836;5.002;2022-11-09T06:25:43;9.48;;;1.70;;
48765;SDS011;34570;51.836;5.002;2022-11-09T06:28:09;10.93;;;2.03;;
48765;SDS011;34570;51.836;5.002;2022-11-09T06:30:34;9.65;;;1.92;;
48765;SDS011;34570;51.836;5.002;2022-11-09T06:33:00;9.57;;;2.20;;
48765;SDS011;34570;51.836;5.002;2022-11-09T06:35:26;8.25;;;2.13;;
48765;SDS011;34570;51.836;5.002;2022-11-09T06:37:55;13.32;;;2.00;;
48765;SDS011;34570;51.836;5.002;2022-11-09T06:40:21;9.43;;;1.83;;
48765;SDS011;34570;51.836;5.002;2022-11-09T06:42:47;14.80;;;1.88;;
48765;SDS011;34570;51.836;5.002;2022-11-09T06:45:12;10.13;;;1.80;;
48765;SDS011;34570;51.836;5.002;2022-11-09T06:47:38;11.32;;;1.88;;
48765;SDS011;34570;51.836;5.002;2022-11-09T06:50:03;15.07;;;1.50;;
48765;SDS011;34570;51.836;5.002;2022-11-09T06:52:29;8.18;;;1.77;;
48765;SDS011;34570;51.836;5.002;2022-11-09T06:54:54;16.20;;;1.92;;
48765;SDS011;34570;51.836;5.002;2022-11-09T06:57:20;10.02;;;1.52;;
48765;SDS011;34570;51.836;5.002;2022-11-09T06:59:45;12.82;;;2.03;;
48765;SDS011;34570;51.836;5.002;2022-11-09T07:02:13;13.85;;;1.90;;
48765;SDS011;34570;51.836;5.002;2022-11-09T07:04:39;14.90;;;2.08;;
48765;SDS011;34570;51.836;5.002;2022-11-09T07:07:05;9.00;;;1.75;;
48765;SDS011;34570;51.836;5.002;2022-11-09T07:09:31;13.57;;;2.33;;
48765;SDS011;34570;51.836;5.002;2022-11-09T07:11:56;13.35;;;2.17;;
48765;SDS011;34570;51.836;5.002;2022-11-09T07:14:22;8.02;;;1.83;;
48765;SDS011;34570;51.836;5.002;2022-11-09T07:16:47;9.60;;;1.70;;
48765;SDS011;34570;51.836;5.002;2022-11-09T07:19:13;18.23;;;2.33;;
48765;SDS011;34570;51.836;5.002;2022-11-09T07:21:38;7.65;;;2.28;;
48765;SDS011;34570;51.836;5.002;2022-11-09T07:24:04;9.73;;;2.25;;
48765;SDS011;34570;51.836;5.002;2022-11-09T07:26:29;13.00;;;2.35;;
48765;SDS011;34570;51.836;5.002;2022-11-09T07:28:55;10.05;;;2.08;;
48765;SDS011;34570;51.836;5.002;2022-11-09T07:31:20;13.52;;;1.95;;
48765;SDS011;34570;51.836;5.002;2022-11-09T07:33:47;15.75;;;2.15;;
48765;SDS011;34570;51.836;5.002;2022-11-09T07:36:13;12.75;;;1.92;;
48765;SDS011;34570;51.836;5.002;2022-11-09T07:38:38;13.75;;;2.13;;
48765;SDS011;34570;51.836;5.002;2022-11-09T07:41:04;16.88;;;2.17;;
48765;SDS011;34570;51.836;5.002;2022-11-09T07:43:29;11.00;;;1.85;;
48765;SDS011;34570;51.836;5.002;2022-11-09T07:45:57;9.15;;;1.92;;
48765;SDS011;34570;51.836;5.002;2022-11-09T07:48:22;9.40;;;2.05;;
48765;SDS011;34570;51.836;5.002;2022-11-09T07:50:48;10.77;;;2.08;;
48765;SDS011;34570;51.836;5.002;2022-11-09T07:53:14;9.40;;;2.33;;
48765;SDS011;34570;51.836;5.002;2022-11-09T07:55:40;10.68;;;2.00;;
48765;SDS011;34570;51.836;5.002;2022-11-09T07:58:07;15.55;;;2.35;;
48765;SDS011;34570;51.836;5.002;2022-11-09T08:00:34;13.88;;;2.05;;
48765;SDS011;34570;51.836;5.002;2022-11-09T08:03:00;10.55;;;2.00;;
48765;SDS011;34570;51.836;5.002;2022-11-09T08:05:25;8.68;;;2.03;;
48765;SDS011;34570;51.836;5.002;2022-11-09T08:07:58;13.23;;;2.33;;
48765;SDS011;34570;51.836;5.002;2022-11-09T08:10:24;8.52;;;2.00;;
48765;SDS011;34570;51.836;5.002;2022-11-09T08:12:53;13.77;;;2.15;;
48765;SDS011;34570;51.836;5.002;2022-11-09T08:15:19;12.57;;;2.03;;
48765;SDS011;34570;51.836;5.002;2022-11-09T08:17:44;9.30;;;1.98;;
48765;SDS011;34570;51.836;5.002;2022-11-09T08:20:10;12.48;;;2.63;;
48765;SDS011;34570;51.836;5.002;2022-11-09T08:22:41;13.40;;;2.42;;
48765;SDS011;34570;51.836;5.002;2022-11-09T08:25:07;11.80;;;2.25;;
48765;SDS011;34570;51.836;5.002;2022-11-09T08:27:32;14.10;;;2.45;;
48765;SDS011;34570;51.836;5.002;2022-11-09T08:30:07;8.98;;;2.25;;
48765;SDS011;34570;51.836;5.002;2022-11-09T08:32:33;13.32;;;2.20;;
48765;SDS011;34570;51.836;5.002;2022-11-09T08:35:01;11.85;;;1.83;;
48765;SDS011;34570;51.836;5.002;2022-11-09T08:37:27;11.27;;;1.88;;
48765;SDS011;34570;51.836;5.002;2022-11-09T08:39:52;10.70;;;2.40;;
48765;SDS011;34570;51.836;5.002;2022-11-09T08:42:17;11.27;;;2.45;;
48765;SDS011;34570;51.836;5.002;2022-11-09T08:44:43;10.38;;;1.88;;
48765;SDS011;34570;51.836;5.002;2022-11-09T08:47:08;13.23;;;2.33;;
48765;SDS011;34570;51.836;5.002;2022-11-09T08:49:34;13.50;;;2.42;;
48765;SDS011;34570;51.836;5.002;2022-11-09T08:51:59;12.00;;;2.30;;
48765;SDS011;34570;51.836;5.002;2022-11-09T08:54:25;9.35;;;2.22;;
48765;SDS011;34570;51.836;5.002;2022-11-09T08:56:53;6.97;;;2.13;;
48765;SDS011;34570;51.836;5.002;2022-11-09T08:59:18;15.10;;;2.15;;
48765;SDS011;34570;51.836;5.002;2022-11-09T09:01:44;15.02;;;2.42;;
48765;SDS011;34570;51.836;5.002;2022-11-09T09:04:09;10.10;;;1.63;;
48765;SDS011;34570;51.836;5.002;2022-11-09T09:06:35;12.82;;;2.30;;
48765;SDS011;34570;51.836;5.002;2022-11-09T09:09:00;10.93;;;1.85;;
48765;SDS011;34570;51.836;5.002;2022-11-09T09:11:26;11.73;;;2.42;;
48765;SDS011;34570;51.836;5.002;2022-11-09T09:13:51;9.15;;;2.10;;
48765;SDS011;34570;51.836;5.002;2022-11-09T09:16:17;15.38;;;2.90;;
48765;SDS011;34570;51.836;5.002;2022-11-09T09:18:42;11.50;;;2.28;;
48765;SDS011;34570;51.836;5.002;2022-11-09T09:21:08;13.20;;;2.38;;
48765;SDS011;34570;51.836;5.002;2022-11-09T09:23:34;12.98;;;1.98;;
48765;SDS011;34570;51.836;5.002;2022-11-09T09:25:59;18.52;;;2.15;;
48765;SDS011;34570;51.836;5.002;2022-11-09T09:28:25;14.20;;;2.05;;
48765;SDS011;34570;51.836;5.002;2022-11-09T09:30:50;11.88;;;1.95;;
48765;SDS011;34570;51.836;5.002;2022-11-09T09:33:16;6.80;;;1.90;;
48765;SDS011;34570;51.836;5.002;2022-11-09T09:35:41;13.40;;;2.08;;
48765;SDS011;34570;51.836;5.002;2022-11-09T09:38:07;11.82;;;1.85;;
48765;SDS011;34570;51.836;5.002;2022-11-09T09:40:37;12.45;;;1.77;;
48765;SDS011;34570;51.836;5.002;2022-11-09T09:43:04;10.98;;;2.00;;
48765;SDS011;34570;51.836;5.002;2022-11-09T09:45:31;8.70;;;1.55;;
48765;SDS011;34570;51.836;5.002;2022-11-09T09:50:53;19.42;;;2.75;;
48765;SDS011;34570;51.836;5.002;2022-11-09T09:53:36;6.22;;;1.85;;
48765;SDS011;34570;51.836;5.002;2022-11-09T09:56:26;9.40;;;2.22;;
48765;SDS011;34570;51.836;5.002;2022-11-09T09:58:51;5.82;;;2.50;;
48765;SDS011;34570;51.836;5.002;2022-11-09T10:01:18;9.88;;;2.22;;
48765;SDS011;34570;51.836;5.002;2022-11-09T10:03:45;8.98;;;2.45;;
48765;SDS011;34570;51.836;5.002;2022-11-09T10:21:55;8.85;;;1.88;;
48765;SDS011;34570;51.836;5.002;2022-11-09T10:26:51;17.83;;;2.55;;
48765;SDS011;34570;51.836;5.002;2022-11-09T10:31:48;7.60;;;1.75;;
48765;SDS011;34570;51.836;5.002;2022-11-09T10:34:16;9.00;;;1.85;;
48765;SDS011;34570;51.836;5.002;2022-11-09T10:36:43;10.40;;;2.00;;
48765;SDS011;34570;51.836;5.002;2022-11-09T10:39:11;9.65;;;1.40;;
48765;SDS011;34570;51.836;5.002;2022-11-09T10:41:56;7.45;;;1.65;;
48765;SDS011;34570;51.836;5.002;2022-11-09T10:44:40;6.85;;;1.17;;
48765;SDS011;34570;51.836;5.002;2022-11-09T10:47:24;8.35;;;1.63;;
48765;SDS011;34570;51.836;5.002;2022-11-09T10:55:56;12.82;;;1.83;;
48765;SDS011;34570;51.836;5.002;2022-11-09T10:58:51;8.73;;;1.67;;
48765;SDS011;34570;51.836;5.002;2022-11-09T11:01:35;10.65;;;1.58;;
48765;SDS011;34570;51.836;5.002;2022-11-09T11:04:21;14.07;;;1.77;;
48765;SDS011;34570;51.836;5.002;2022-11-09T11:07:12;7.03;;;1.50;;
48765;SDS011;34570;51.836;5.002;2022-11-09T11:09:57;6.35;;;1.50;;
48765;SDS011;34570;51.836;5.002;2022-11-09T11:15:44;10.65;;;1.90;;
48765;SDS011;34570;51.836;5.002;2022-11-09T11:18:29;11.40;;;1.90;;
48765;SDS011;34570;51.836;5.002;2022-11-09T11:21:16;15.65;;;2.00;;
48765;SDS011;34570;51.836;5.002;2022-11-09T11:24:11;8.10;;;2.00;;
48765;SDS011;34570;51.836;5.002;2022-11-09T11:32:23;7.97;;;2.00;;
48765;SDS011;34570;51.836;5.002;2022-11-09T11:35:14;11.07;;;1.98;;
48765;SDS011;34570;51.836;5.002;2022-11-09T11:43:45;15.40;;;2.35;;
48765;SDS011;34570;51.836;5.002;2022-11-09T11:46:45;10.65;;;2.28;;
48765;SDS011;34570;51.836;5.002;2022-11-09T11:58:01;5.95;;;1.80;;
48765;SDS011;34570;51.836;5.002;2022-11-09T12:03:43;8.90;;;1.92;;
48765;SDS011;34570;51.836;5.002;2022-11-09T12:06:35;13.47;;;2.23;;
48765;SDS011;34570;51.836;5.002;2022-11-09T12:09:29;13.50;;;2.08;;
48765;SDS011;34570;51.836;5.002;2022-11-09T12:12:32;10.90;;;1.42;;
48765;SDS011;34570;51.836;5.002;2022-11-09T12:18:25;6.10;;;1.90;;
48765;SDS011;34570;51.836;5.002;2022-11-09T12:21:15;8.90;;;2.00;;
48765;SDS011;34570;51.836;5.002;2022-11-09T12:26:59;21.25;;;2.47;;
48765;SDS011;34570;51.836;5.002;2022-11-09T12:29:55;9.30;;;1.63;;
48765;SDS011;34570;51.836;5.002;2022-11-09T12:35:35;7.40;;;1.70;;
48765;SDS011;34570;51.836;5.002;2022-11-09T12:41:15;10.70;;;1.35;;
48765;SDS011;34570;51.836;5.002;2022-11-09T12:44:01;8.88;;;1.20;;
48765;SDS011;34570;51.836;5.002;2022-11-09T12:46:51;7.53;;;0.82;;
48765;SDS011;34570;51.836;5.002;2022-11-09T12:49:38;9.88;;;1.02;;
48765;SDS011;34570;51.836;5.002;2022-11-09T12:52:25;7.15;;;0.88;;
48765;SDS011;34570;51.836;5.002;2022-11-09T12:55:14;7.25;;;1.08;;
48765;SDS011;34570;51.836;5.002;2022-11-09T12:57:58;3.13;;;0.85;;
48765;SDS011;34570;51.836;5.002;2022-11-09T13:06:32;4.53;;;0.77;;
48765;SDS011;34570;51.836;5.002;2022-11-09T13:09:21;5.80;;;0.80;;
48765;SDS011;34570;51.836;5.002;2022-11-09T13:12:16;3.38;;;0.60;;
48765;SDS011;34570;51.836;5.002;2022-11-09T13:15:20;8.40;;;0.70;;
48765;SDS011;34570;51.836;5.002;2022-11-09T13:18:21;4.55;;;0.95;;
48765;SDS011;34570;51.836;5.002;2022-11-09T13:27:29;3.13;;;0.70;;
48765;SDS011;34570;51.836;5.002;2022-11-09T13:38:42;15.98;;;0.82;;
48765;SDS011;34570;51.836;5.002;2022-11-09T13:44:15;3.47;;;0.57;;
48765;SDS011;34570;51.836;5.002;2022-11-09T13:46:59;4.78;;;1.17;;
48765;SDS011;34570;51.836;5.002;2022-11-09T13:49:45;6.88;;;1.08;;
48765;SDS011;34570;51.836;5.002;2022-11-09T13:55:31;7.80;;;1.50;;
48765;SDS011;34570;51.836;5.002;2022-11-09T13:58:27;5.97;;;0.68;;
48765;SDS011;34570;51.836;5.002;2022-11-09T14:01:28;4.25;;;1.05;;
48765;SDS011;34570;51.836;5.002;2022-11-09T14:07:03;5.53;;;0.75;;
48765;SDS011;34570;51.836;5.002;2022-11-09T14:15:31;3.40;;;0.60;;
48765;SDS011;34570;51.836;5.002;2022-11-09T14:21:14;7.53;;;1.17;;
48765;SDS011;34570;51.836;5.002;2022-11-09T14:24:01;5.63;;;0.75;;
48765;SDS011;34570;51.836;5.002;2022-11-09T14:30:11;4.93;;;0.98;;
48765;SDS011;34570;51.836;5.002;2022-11-09T14:32:56;9.70;;;0.95;;
48765;SDS011;34570;51.836;5.002;2022-11-09T14:35:41;7.57;;;0.95;;
48765;SDS011;34570;51.836;5.002;2022-11-09T14:38:34;10.05;;;0.75;;
48765;SDS011;34570;51.836;5.002;2022-11-09T14:41:20;1.58;;;0.50;;
48765;SDS011;34570;51.836;5.002;2022-11-09T14:44:08;6.95;;;0.88;;
48765;SDS011;34570;51.836;5.002;2022-11-09T14:46:56;9.10;;;0.70;;
48765;SDS011;34570;51.836;5.002;2022-11-09T14:49:40;5.13;;;0.77;;
48765;SDS011;34570;51.836;5.002;2022-11-09T14:52:26;6.85;;;1.10;;
48765;SDS011;34570;51.836;5.002;2022-11-09T14:55:11;13.13;;;1.45;;
48765;SDS011;34570;51.836;5.002;2022-11-09T14:57:56;5.55;;;0.93;;
48765;SDS011;34570;51.836;5.002;2022-11-09T15:00:40;8.63;;;0.80;;
48765;SDS011;34570;51.836;5.002;2022-11-09T15:03:26;6.28;;;1.00;;
48765;SDS011;34570;51.836;5.002;2022-11-09T15:06:14;8.32;;;1.17;;
48765;SDS011;34570;51.836;5.002;2022-11-09T15:09:02;7.10;;;1.00;;
48765;SDS011;34570;51.836;5.002;2022-11-09T15:11:47;6.07;;;1.00;;
48765;SDS011;34570;51.836;5.002;2022-11-09T15:14:32;5.18;;;0.85;;
48765;SDS011;34570;51.836;5.002;2022-11-09T15:20:02;7.80;;;0.90;;
48765;SDS011;34570;51.836;5.002;2022-11-09T15:25:35;7.80;;;1.08;;
48765;SDS011;34570;51.836;5.002;2022-11-09T15:28:48;7.03;;;0.98;;
48765;SDS011;34570;51.836;5.002;2022-11-09T15:31:33;3.28;;;0.90;;
48765;SDS011;34570;51.836;5.002;2022-11-09T15:34:21;9.05;;;0.80;;
48765;SDS011;34570;51.836;5.002;2022-11-09T15:37:18;4.20;;;1.15;;
48765;SDS011;34570;51.836;5.002;2022-11-09T15:40:08;5.45;;;1.20;;
48765;SDS011;34570;51.836;5.002;2022-11-09T15:42:52;6.00;;;1.05;;
48765;SDS011;34570;51.836;5.002;2022-11-09T15:45:36;4.32;;;1.25;;
48765;SDS011;34570;51.836;5.002;2022-11-09T15:48:21;5.95;;;1.35;;
48765;SDS011;34570;51.836;5.002;2022-11-09T15:51:05;4.40;;;1.13;;
48765;SDS011;34570;51.836;5.002;2022-11-09T15:53:49;7.10;;;1.00;;
48765;SDS011;34570;51.836;5.002;2022-11-09T15:56:33;8.02;;;1.50;;
48765;SDS011;34570;51.836;5.002;2022-11-09T15:59:21;12.85;;;1.30;;
48765;SDS011;34570;51.836;5.002;2022-11-09T16:02:05;4.90;;;0.77;;
48765;SDS011;34570;51.836;5.002;2022-11-09T16:04:49;6.30;;;1.10;;
48765;SDS011;34570;51.836;5.002;2022-11-09T16:07:33;6.47;;;0.90;;
48765;SDS011;34570;51.836;5.002;2022-11-09T16:10:17;8.35;;;0.98;;
48765;SDS011;34570;51.836;5.002;2022-11-09T16:13:06;3.30;;;0.70;;
48765;SDS011;34570;51.836;5.002;2022-11-09T16:15:50;6.03;;;1.00;;
48765;SDS011;34570;51.836;5.002;2022-11-09T16:18:34;4.78;;;1.08;;
48765;SDS011;34570;51.836;5.002;2022-11-09T16:21:18;4.82;;;1.10;;
48765;SDS011;34570;51.836;5.002;2022-11-09T16:24:02;6.45;;;0.60;;
48765;SDS011;34570;51.836;5.002;2022-11-09T16:26:46;8.65;;;1.10;;
48765;SDS011;34570;51.836;5.002;2022-11-09T16:29:31;13.32;;;1.15;;
48765;SDS011;34570;51.836;5.002;2022-11-09T16:32:15;7.03;;;1.00;;
48765;SDS011;34570;51.836;5.002;2022-11-09T16:34:59;6.57;;;0.90;;
48765;SDS011;34570;51.836;5.002;2022-11-09T16:37:44;12.25;;;1.45;;
48765;SDS011;34570;51.836;5.002;2022-11-09T16:40:29;10.30;;;1.30;;
48765;SDS011;34570;51.836;5.002;2022-11-09T16:43:14;7.85;;;1.17;;
48765;SDS011;34570;51.836;5.002;2022-11-09T16:45:58;9.23;;;1.23;;
48765;SDS011;34570;51.836;5.002;2022-11-09T16:48:42;8.82;;;1.10;;
48765;SDS011;34570;51.836;5.002;2022-11-09T16:51:26;9.85;;;1.40;;
48765;SDS011;34570;51.836;5.002;2022-11-09T16:54:10;12.45;;;1.38;;
48765;SDS011;34570;51.836;5.002;2022-11-09T16:56:54;11.88;;;1.40;;
48765;SDS011;34570;51.836;5.002;2022-11-09T16:59:37;10.00;;;1.30;;
48765;SDS011;34570;51.836;5.002;2022-11-09T17:02:23;9.70;;;1.60;;
48765;SDS011;34570;51.836;5.002;2022-11-09T17:05:07;8.13;;;1.92;;
48765;SDS011;34570;51.836;5.002;2022-11-09T17:07:51;9.23;;;1.90;;
48765;SDS011;34570;51.836;5.002;2022-11-09T17:10:43;8.32;;;1.20;;
48765;SDS011;34570;51.836;5.002;2022-11-09T17:13:27;9.48;;;1.35;;
48765;SDS011;34570;51.836;5.002;2022-11-09T17:16:12;11.05;;;1.17;;
48765;SDS011;34570;51.836;5.002;2022-11-09T17:18:56;3.85;;;0.73;;
48765;SDS011;34570;51.836;5.002;2022-11-09T17:21:40;9.45;;;1.45;;